MSC Ingrid — HOHA — position and weather

sailwx.info

Track history (hours):
 
Tides and Currents Weather Stations Pressure Air Temp Water Temp Dewpoint Dewpoint Depression Visibility Wind Speed Wind Dir Waves Ship Positions

MSC Ingrid

Last reported at 2015-Jul-02 16:16 UTC. Time now 2015-Jul-07 17:40 UTC.
Position S 13°01' W 038°14'.

Length 294 m; draft 11.4 m.

Type: Ship (hazmat cat A). MMSI: 354505000.

Date/timePositionNaut miles runAvg speedWind from/ knotsBaromVisibWave heightAir tempDewpointWater temp
2015-Jul-02 16:16S 13°01' W 038°14'1419.1
2015-Jul-02 15:33S 13°06' W 038°27'9 9.4
2015-Jul-02 14:33S 12°59' W 038°33'3 3.1
2015-Jul-02 13:31S 12°58' W 038°31'0 0.0
2015-Jul-02 12:28S 12°58' W 038°31'0 0.0
2015-Jul-02 11:31S 12°58' W 038°31'0 0.0
2015-Jul-02 10:25S 12°58' W 038°31'0 0.0
2015-Jul-02 09:31S 12°58' W 038°31'0 0.0
2015-Jul-02 08:31S 12°58' W 038°31'0 0.0
2015-Jul-02 07:31S 12°58' W 038°31'0 0.0
2015-Jul-02 06:33S 12°58' W 038°31'1 1.1
2015-Jul-02 05:33S 12°57' W 038°31'8 8.3
2015-Jul-02 04:33S 13°04' W 038°35'3 2.9
2015-Jul-02 03:27S 13°05' W 038°38'0 0.0
2015-Jul-02 02:33S 13°05' W 038°38'0 0.0
2015-Jul-02 01:33S 13°05' W 038°38'0 0.1
2015-Jul-02 00:33S 13°05' W 038°38'0 0.0
2015-Jul-01 23:33S 13°05' W 038°38'0 0.0
2015-Jul-01 22:24S 13°05' W 038°38'0 0.0
2015-Jul-01 21:30S 13°05' W 038°38'0 0.0
2015-Jul-01 20:30S 13°05' W 038°38'0 0.0
2015-Jul-01 19:33S 13°05' W 038°38'0 0.0
2015-Jul-01 18:33S 13°05' W 038°38'0 0.0
2015-Jul-01 17:33S 13°05' W 038°38'0 0.1
2015-Jul-01 16:33S 13°05' W 038°38'0 0.0
2015-Jul-01 15:33S 13°05' W 038°38'0 0.0
2015-Jul-01 14:33S 13°05' W 038°38'0 0.0
2015-Jul-01 13:33S 13°05' W 038°38'0 0.1
2015-Jul-01 12:33S 13°05' W 038°38'0 0.0
2015-Jul-01 11:33S 13°05' W 038°38'  
2015-Jun-25 09:21S 26°58' W 048°22'2311.8
2015-Jun-25 07:25S 27°18' W 048°10'1113.2
2015-Jun-25 06:33S 27°29' W 048°12'1313.1
2015-Jun-25 05:33S 27°42' W 048°14'1312.8
2015-Jun-25 04:33S 27°55' W 048°16'  
Track history (hours):
 
Tides and Currents Weather Stations Pressure Air Temp Water Temp Dewpoint Dewpoint Depression Visibility Wind Speed Wind Dir Waves Ship Positions

MSC Ingrid

Last reported at 2015-Jul-02 16:16 UTC. Time now 2015-Jul-07 17:40 UTC.
Position S 13°01' W 038°14'.

Length 294 m; draft 11.4 m.

Type: Ship (hazmat cat A). MMSI: 354505000.

Date/timePositionNaut miles runAvg speedWind from/ knotsBaromVisibWave heightAir tempDewpointWater temp
2015-Jul-02 16:16S 13°01' W 038°14'1419.1
2015-Jul-02 15:33S 13°06' W 038°27'9 9.4
2015-Jul-02 14:33S 12°59' W 038°33'3 3.1
2015-Jul-02 13:31S 12°58' W 038°31'0 0.0
2015-Jul-02 12:28S 12°58' W 038°31'0 0.0
2015-Jul-02 11:31S 12°58' W 038°31'0 0.0
2015-Jul-02 10:25S 12°58' W 038°31'0 0.0
2015-Jul-02 09:31S 12°58' W 038°31'0 0.0
2015-Jul-02 08:31S 12°58' W 038°31'0 0.0
2015-Jul-02 07:31S 12°58' W 038°31'0 0.0
2015-Jul-02 06:33S 12°58' W 038°31'1 1.1
2015-Jul-02 05:33S 12°57' W 038°31'8 8.3
2015-Jul-02 04:33S 13°04' W 038°35'3 2.9
2015-Jul-02 03:27S 13°05' W 038°38'0 0.0
2015-Jul-02 02:33S 13°05' W 038°38'0 0.0
2015-Jul-02 01:33S 13°05' W 038°38'0 0.1
2015-Jul-02 00:33S 13°05' W 038°38'0 0.0
2015-Jul-01 23:33S 13°05' W 038°38'0 0.0
2015-Jul-01 22:24S 13°05' W 038°38'0 0.0
2015-Jul-01 21:30S 13°05' W 038°38'0 0.0
2015-Jul-01 20:30S 13°05' W 038°38'0 0.0
2015-Jul-01 19:33S 13°05' W 038°38'0 0.0
2015-Jul-01 18:33S 13°05' W 038°38'0 0.0
2015-Jul-01 17:33S 13°05' W 038°38'0 0.1
2015-Jul-01 16:33S 13°05' W 038°38'0 0.0
2015-Jul-01 15:33S 13°05' W 038°38'0 0.0
2015-Jul-01 14:33S 13°05' W 038°38'0 0.0
2015-Jul-01 13:33S 13°05' W 038°38'0 0.1
2015-Jul-01 12:33S 13°05' W 038°38'0 0.0
2015-Jul-01 11:33S 13°05' W 038°38'  
2015-Jun-25 09:21S 26°58' W 048°22'2311.8
2015-Jun-25 07:25S 27°18' W 048°10'1113.2
2015-Jun-25 06:33S 27°29' W 048°12'1313.1
2015-Jun-25 05:33S 27°42' W 048°14'1312.8
2015-Jun-25 04:33S 27°55' W 048°16'  

Dump ship's entire track history